createdAt,value
2022-10-23T00:01:54.119Z,99883.91
2022-10-23T00:04:22.925Z,99887.84
2022-10-23T00:06:50.914Z,99877.63
2022-10-23T00:09:20.293Z,99881.38
2022-10-23T00:11:48.659Z,99878.91
2022-10-23T00:14:16.969Z,99868.75
2022-10-23T00:16:44.925Z,99868.09
2022-10-23T00:19:14.268Z,99870.81
2022-10-23T00:21:42.219Z,99873.88
2022-10-23T00:26:43.123Z,99877.13
2022-10-23T00:29:11.576Z,99876.19
2022-10-23T00:31:39.730Z,99856.41
2022-10-23T00:34:08.663Z,99883.91
2022-10-23T00:36:38.670Z,99899.22
2022-10-23T00:39:06.856Z,99899.16
2022-10-23T00:41:34.853Z,99898.03
2022-10-23T00:44:08.701Z,99904.22
2022-10-23T00:46:36.858Z,99913.06
2022-10-23T00:49:05.383Z,99893.38
2022-10-23T00:51:36.768Z,99909.84
2022-10-23T00:54:23.455Z,99910.47
2022-10-23T00:56:52.225Z,99906.00
2022-10-23T00:59:20.160Z,99903.94
2022-10-23T01:01:48.523Z,99895.66
2022-10-23T01:04:16.615Z,99906.06
2022-10-23T01:06:48.037Z,99915.06
2022-10-23T01:09:20.209Z,99909.47
2022-10-23T01:11:49.818Z,99911.34
2022-10-23T01:14:22.399Z,99920.66
2022-10-23T01:16:54.515Z,99920.75
2022-10-23T01:19:24.051Z,99916.19
2022-10-23T01:21:56.392Z,99897.41
2022-10-23T01:24:32.558Z,99924.53
2022-10-23T01:27:14.226Z,99931.97
2022-10-23T01:29:43.290Z,99930.28
2022-10-23T01:32:12.610Z,99926.56
2022-10-23T01:34:44.082Z,99937.78
2022-10-23T01:37:13.289Z,99943.16
2022-10-23T01:39:42.475Z,99947.72
2022-10-23T01:42:12.020Z,99932.09
2022-10-23T01:44:42.901Z,99945.47
2022-10-23T01:47:11.655Z,99958.53
2022-10-23T01:49:40.366Z,99953.31
2022-10-23T01:52:09.581Z,99950.59
2022-10-23T01:54:38.537Z,99952.28
2022-10-23T01:57:06.792Z,99965.38
2022-10-23T01:59:36.879Z,99951.75
2022-10-23T02:02:06.377Z,99969.75
2022-10-23T02:04:35.817Z,99985.56
2022-10-23T02:07:03.761Z,99980.66
2022-10-23T02:09:31.761Z,99992.66
2022-10-23T02:12:00.881Z,99985.88
2022-10-23T02:14:35.266Z,99996.94
2022-10-23T02:17:08.620Z,99982.44
2022-10-23T02:19:41.710Z,99994.16
2022-10-23T02:22:11.884Z,100004.56
2022-10-23T02:24:40.994Z,100008.28
2022-10-23T02:27:11.266Z,100013.31
2022-10-23T02:29:41.251Z,100026.63
2022-10-23T02:32:10.619Z,100016.50
2022-10-23T02:34:38.580Z,100031.56
2022-10-23T02:37:06.589Z,100030.34
2022-10-23T02:39:34.609Z,100042.50
2022-10-23T02:42:06.360Z,100046.78
2022-10-23T02:44:40.253Z,100044.72
2022-10-23T02:47:18.716Z,100061.00
2022-10-23T02:49:50.647Z,100071.44
2022-10-23T02:52:21.846Z,100079.00
2022-10-23T02:55:05.427Z,100085.66
2022-10-23T02:57:34.268Z,100080.94
2022-10-23T03:00:05.427Z,100080.19
2022-10-23T03:02:37.997Z,100083.38
2022-10-23T03:05:07.424Z,100093.44
2022-10-23T03:07:35.381Z,100107.97
2022-10-23T03:10:03.437Z,100110.69
2022-10-23T03:12:31.426Z,100121.19
2022-10-23T03:14:59.466Z,100125.22
2022-10-23T03:17:27.416Z,100127.91
2022-10-23T03:19:56.731Z,100131.38
2022-10-23T03:22:24.709Z,100130.50
2022-10-23T03:24:52.653Z,100120.28
2022-10-23T03:27:20.746Z,100129.00
2022-10-23T03:29:48.758Z,100133.94
2022-10-23T03:32:16.814Z,100133.22
2022-10-23T03:34:44.792Z,100138.38
2022-10-23T03:37:14.102Z,100139.13
2022-10-23T03:39:42.116Z,100147.84
2022-10-23T03:42:10.117Z,100152.06
2022-10-23T03:44:38.075Z,100160.09
2022-10-23T03:47:06.239Z,100159.34
2022-10-23T03:49:34.237Z,100157.41
2022-10-23T03:52:02.195Z,100157.50
2022-10-23T03:54:31.861Z,100153.81
2022-10-23T03:56:59.798Z,100160.06
2022-10-23T03:59:27.731Z,100170.56
2022-10-23T04:01:55.843Z,100176.41
2022-10-23T04:04:24.091Z,100173.50
2022-10-23T04:06:52.064Z,100174.56
2022-10-23T04:09:20.346Z,100174.34
2022-10-23T04:11:49.681Z,100176.84
2022-10-23T04:14:17.631Z,100170.31
2022-10-23T04:16:45.598Z,100181.78
2022-10-23T04:19:13.651Z,100195.97
2022-10-23T04:21:41.640Z,100188.03
2022-10-23T04:24:09.681Z,100193.06
2022-10-23T04:26:37.979Z,100196.81
2022-10-23T04:29:07.307Z,100204.75
2022-10-23T04:31:35.315Z,100204.97
2022-10-23T04:34:03.262Z,100203.31
2022-10-23T04:36:31.332Z,100195.19
2022-10-23T04:38:59.277Z,100206.84
2022-10-23T04:41:27.300Z,100212.03
2022-10-23T04:43:55.326Z,100196.09
2022-10-23T04:46:24.661Z,100199.19
2022-10-23T04:48:52.617Z,100210.50
2022-10-23T04:51:20.558Z,100196.63
2022-10-23T04:53:48.529Z,100185.34
2022-10-23T04:56:16.506Z,100188.84
2022-10-23T04:58:44.467Z,100207.00
2022-10-23T05:01:12.513Z,100207.00
2022-10-23T05:03:41.999Z,100214.94
2022-10-23T05:06:10.121Z,100225.38
2022-10-23T05:08:38.205Z,100217.06
2022-10-23T05:11:06.629Z,100234.78
2022-10-23T05:13:34.611Z,100246.28
2022-10-23T05:16:02.538Z,100240.41
2022-10-23T05:18:31.914Z,100244.63
2022-10-23T05:21:03.071Z,100243.31
2022-10-23T05:23:31.191Z,100237.50
2022-10-23T05:25:59.170Z,100250.06
2022-10-23T05:28:27.120Z,100248.81
2022-10-23T05:30:55.082Z,100246.28
2022-10-23T05:33:23.557Z,100243.69
2022-10-23T05:35:51.513Z,100250.59
2022-10-23T05:38:20.893Z,100249.25
2022-10-23T05:40:48.816Z,100248.66
2022-10-23T05:43:16.802Z,100253.34
2022-10-23T05:45:44.792Z,100256.91
2022-10-23T05:48:29.791Z,100257.63
2022-10-23T05:51:04.995Z,100236.56
2022-10-23T05:53:36.157Z,100254.91
2022-10-23T05:56:07.405Z,100241.28
2022-10-23T05:58:35.565Z,100244.75
2022-10-23T06:01:09.523Z,100245.34
2022-10-23T06:03:37.656Z,100252.22
2022-10-23T06:06:06.424Z,100262.91
2022-10-23T06:08:35.801Z,100271.34
2022-10-23T06:11:08.037Z,100286.50
2022-10-23T06:13:36.060Z,100283.53
2022-10-23T06:16:10.199Z,100282.53
2022-10-23T06:18:38.161Z,100253.47
2022-10-23T06:21:06.352Z,100288.94
2022-10-23T06:23:36.144Z,100289.47
2022-10-23T06:26:04.283Z,100278.38
2022-10-23T06:28:32.308Z,100285.28
2022-10-23T06:31:00.272Z,100287.47
2022-10-23T06:33:28.416Z,100282.47
2022-10-23T06:35:57.251Z,100293.78
2022-10-23T06:38:25.281Z,100288.72
2022-10-23T06:40:55.228Z,100283.16
2022-10-23T06:43:23.157Z,100293.16
2022-10-23T06:45:51.118Z,100290.44
2022-10-23T06:48:19.064Z,100312.88
2022-10-23T06:50:47.002Z,100309.41
2022-10-23T06:53:14.963Z,100318.94
2022-10-23T06:55:42.895Z,100316.00
2022-10-23T06:58:12.254Z,100328.63
2022-10-23T07:00:40.248Z,100328.19
2022-10-23T07:03:09.142Z,100334.41
2022-10-23T07:05:37.190Z,100340.78
2022-10-23T07:08:06.023Z,100332.72
2022-10-23T07:10:33.965Z,100329.88
2022-10-23T07:13:03.270Z,100335.22
2022-10-23T07:15:32.907Z,100335.31
2022-10-23T07:18:00.878Z,100336.50
2022-10-23T07:20:28.883Z,100329.63
2022-10-23T07:22:57.265Z,100331.34
2022-10-23T07:25:25.626Z,100318.22
2022-10-23T07:27:55.424Z,100326.81
2022-10-23T07:30:24.318Z,100329.91
2022-10-23T07:32:53.702Z,100326.94
2022-10-23T07:35:21.711Z,100322.28
2022-10-23T07:37:49.750Z,100322.63
2022-10-23T07:40:18.849Z,100317.66
2022-10-23T07:42:46.819Z,100331.72
2022-10-23T07:45:14.833Z,100341.50
2022-10-23T07:47:42.938Z,100354.41
2022-10-23T07:50:12.648Z,100355.63
2022-10-23T07:52:40.681Z,100357.75
2022-10-23T07:55:09.377Z,100353.34
2022-10-23T07:57:39.081Z,100345.16
2022-10-23T08:00:08.862Z,100346.59
2022-10-23T08:02:36.901Z,100346.38
2022-10-23T08:05:05.244Z,100348.28
2022-10-23T08:07:34.653Z,100352.84
2022-10-23T08:10:02.688Z,100356.13
2022-10-23T08:12:30.669Z,100352.28
2022-10-23T08:14:58.664Z,100352.88
2022-10-23T08:17:28.364Z,100355.38
2022-10-23T08:19:56.418Z,100361.00
2022-10-23T08:22:24.436Z,100355.09
2022-10-23T08:24:53.804Z,100357.50
2022-10-23T08:27:21.772Z,100353.47
2022-10-23T08:29:49.756Z,100363.44
2022-10-23T08:32:17.731Z,100361.69
2022-10-23T08:34:45.877Z,100359.63
2022-10-23T08:37:13.839Z,100346.81
2022-10-23T08:39:41.887Z,100342.41
2022-10-23T08:42:22.025Z,100353.09
2022-10-23T08:44:54.147Z,100345.16
2022-10-23T08:47:25.848Z,100355.50
2022-10-23T08:49:56.624Z,100350.84
2022-10-23T08:52:27.361Z,100349.91
2022-10-23T08:55:01.255Z,100352.03
2022-10-23T08:57:37.754Z,100363.22
2022-10-23T09:00:12.434Z,100356.06
2022-10-23T09:02:43.595Z,100364.28
2022-10-23T09:05:15.752Z,100363.47
2022-10-23T09:07:48.971Z,100358.91
2022-10-23T09:10:40.381Z,100355.09
2022-10-23T09:13:22.604Z,100351.13
2022-10-23T09:15:51.398Z,100355.88
2022-10-23T09:18:19.347Z,100349.00
2022-10-23T09:20:47.381Z,100354.56
2022-10-23T09:23:16.761Z,100348.66
2022-10-23T09:25:45.121Z,100350.59
2022-10-23T09:28:18.736Z,100343.28
2022-10-23T09:30:46.703Z,100338.94
2022-10-23T09:33:15.532Z,100336.44
2022-10-23T09:35:53.532Z,100336.97
2022-10-23T09:38:30.627Z,100342.28
2022-10-23T09:40:59.823Z,100343.63
2022-10-23T09:43:29.468Z,100341.44
2022-10-23T09:45:58.505Z,100346.59
2022-10-23T09:48:26.496Z,100353.09
2022-10-23T09:50:55.201Z,100339.63
2022-10-23T09:53:34.443Z,100325.69
2022-10-23T09:56:03.690Z,100321.97
2022-10-23T09:58:35.606Z,100335.47
2022-10-23T10:01:03.852Z,100332.78
2022-10-23T10:03:31.889Z,100319.66
2022-10-23T10:06:01.089Z,100328.31
2022-10-23T10:08:36.957Z,100323.94
2022-10-23T10:11:08.683Z,100304.16
2022-10-23T10:14:00.777Z,100326.59
2022-10-23T10:16:34.096Z,100311.97
2022-10-23T10:19:04.893Z,100318.38
2022-10-23T10:21:35.643Z,100320.56
2022-10-23T10:24:06.546Z,100302.50
2022-10-23T10:26:37.681Z,100322.03
2022-10-23T10:29:13.390Z,100322.59
2022-10-23T10:31:50.677Z,100311.00
2022-10-23T10:34:23.640Z,100306.22
2022-10-23T10:36:52.706Z,100294.78
2022-10-23T10:39:29.670Z,100283.03
2022-10-23T10:42:07.361Z,100277.97
2022-10-23T10:44:48.221Z,100275.78
2022-10-23T10:47:21.047Z,100276.44
2022-10-23T10:49:54.906Z,100269.91
2022-10-23T10:52:25.893Z,100270.81
2022-10-23T10:54:58.063Z,100278.53
2022-10-23T10:57:30.697Z,100275.16
2022-10-23T11:00:02.104Z,100270.00
2022-10-23T11:02:30.554Z,100282.13
2022-10-23T11:05:01.919Z,100279.94
2022-10-23T11:07:33.737Z,100258.47
2022-10-23T11:10:01.649Z,100249.53
2022-10-23T11:12:29.643Z,100257.84
2022-10-23T11:14:57.710Z,100262.16
2022-10-23T11:17:27.883Z,100260.72
2022-10-23T11:19:59.058Z,100260.28
2022-10-23T11:22:29.177Z,100260.56
2022-10-23T11:25:14.290Z,100261.94
2022-10-23T11:28:03.398Z,100263.88
2022-10-23T11:30:34.733Z,100253.13
2022-10-23T11:33:43.916Z,100253.41
2022-10-23T11:36:16.468Z,100268.19
2022-10-23T11:38:45.397Z,100261.13
2022-10-23T11:41:23.819Z,100264.53
2022-10-23T11:43:55.445Z,100260.09
2022-10-23T11:46:33.719Z,100265.75
2022-10-23T11:49:03.232Z,100262.50
2022-10-23T11:51:33.585Z,100266.81
2022-10-23T11:54:09.126Z,100272.09
2022-10-23T11:56:37.165Z,100271.13
2022-10-23T11:59:21.310Z,100267.88
2022-10-23T12:01:49.360Z,100269.81
2022-10-23T12:04:21.595Z,100270.69
2022-10-23T12:06:51.511Z,100260.28
2022-10-23T12:09:25.219Z,100225.81
2022-10-23T12:12:04.359Z,100245.59
2022-10-23T12:14:33.830Z,100255.28
2022-10-23T12:17:01.792Z,100261.16
2022-10-23T12:19:31.222Z,100255.31
2022-10-23T12:22:01.882Z,100263.63
2022-10-23T12:24:54.108Z,100264.03
2022-10-23T12:27:26.509Z,100260.16
2022-10-23T12:30:01.468Z,100248.50
2022-10-23T12:32:37.356Z,100266.28
2022-10-23T12:35:16.643Z,100268.44
2022-10-23T12:38:07.430Z,100259.47
2022-10-23T12:40:35.367Z,100276.59
2022-10-23T12:43:03.462Z,100288.41
2022-10-23T12:45:32.432Z,100265.47
2022-10-23T12:48:00.403Z,100277.09
2022-10-23T12:50:29.252Z,100259.16
2022-10-23T12:52:58.190Z,100262.63
2022-10-23T12:55:29.802Z,100261.66
2022-10-23T12:58:00.132Z,100276.50
2022-10-23T13:00:28.107Z,100280.44
2022-10-23T13:02:59.682Z,100279.75
2022-10-23T13:05:27.623Z,100283.75
2022-10-23T13:07:55.607Z,100280.44
2022-10-23T13:10:23.661Z,100262.13
2022-10-23T13:12:54.815Z,100270.22
2022-10-23T13:15:23.841Z,100273.09
2022-10-23T13:18:02.206Z,100269.06
2022-10-23T13:20:30.823Z,100268.88
2022-10-23T13:23:01.326Z,100247.25
2022-10-23T13:25:30.826Z,100268.72
2022-10-23T13:28:15.245Z,100273.50
2022-10-23T13:30:45.308Z,100264.50
2022-10-23T13:33:23.411Z,100266.66
2022-10-23T13:35:58.500Z,100279.78
2022-10-23T13:38:30.775Z,100281.94
2022-10-23T13:40:59.453Z,100268.63
2022-10-23T13:43:30.679Z,100270.78
2022-10-23T13:45:58.945Z,100271.50
2022-10-23T13:48:27.099Z,100248.06
2022-10-23T13:50:55.100Z,100264.38
2022-10-23T13:53:23.220Z,100278.94
2022-10-23T13:55:54.939Z,100268.81
2022-10-23T13:58:25.964Z,100278.72
2022-10-23T14:00:55.345Z,100277.03
2022-10-23T14:03:24.438Z,100273.72
2022-10-23T14:05:52.422Z,100266.84
2022-10-23T14:08:20.569Z,100270.38
2022-10-23T14:10:48.546Z,100274.44
2022-10-23T14:13:17.002Z,100281.47
2022-10-23T14:15:44.959Z,100282.53
2022-10-23T14:18:14.279Z,100278.72
2022-10-23T14:20:42.207Z,100275.91
2022-10-23T14:23:10.168Z,100276.72
2022-10-23T14:25:38.163Z,100272.81
2022-10-23T14:28:06.448Z,100270.78
2022-10-23T14:30:34.415Z,100273.47
2022-10-23T14:33:02.363Z,100266.47
2022-10-23T14:35:31.790Z,100277.16
2022-10-23T14:37:59.832Z,100280.38
2022-10-23T14:40:27.789Z,100283.78
2022-10-23T14:42:55.791Z,100279.13
2022-10-23T14:45:23.747Z,100283.63
2022-10-23T14:47:51.691Z,100284.56
2022-10-23T14:50:19.722Z,100277.91
2022-10-23T14:52:49.071Z,100277.63
2022-10-23T14:55:17.074Z,100284.06
2022-10-23T14:57:45.369Z,100280.81
2022-10-23T15:00:14.738Z,100281.53
2022-10-23T15:02:43.134Z,100276.94
2022-10-23T15:05:11.234Z,100266.63
2022-10-23T15:07:40.499Z,100282.53
2022-10-23T15:10:10.868Z,100281.41
2022-10-23T15:12:38.927Z,100277.31
2022-10-23T15:15:07.879Z,100269.03
2022-10-23T15:17:37.730Z,100266.44
2022-10-23T15:20:06.710Z,100268.41
2022-10-23T15:22:34.739Z,100278.53
2022-10-23T15:25:02.684Z,100278.69
2022-10-23T15:27:32.008Z,100277.28
2022-10-23T15:29:59.950Z,100276.28
2022-10-23T15:32:27.948Z,100267.53
2022-10-23T15:34:58.239Z,100277.88
2022-10-23T15:37:26.216Z,100272.31
2022-10-23T15:39:57.168Z,100286.22
2022-10-23T15:42:27.757Z,100283.09
2022-10-23T15:44:57.085Z,100288.19
2022-10-23T15:47:25.019Z,100285.09
2022-10-23T15:49:52.990Z,100303.13
2022-10-23T15:52:21.023Z,100294.41
2022-10-23T15:54:49.045Z,100301.94
2022-10-23T15:57:17.014Z,100306.59
2022-10-23T15:59:45.013Z,100299.53
2022-10-23T16:02:15.636Z,100310.03
2022-10-23T16:04:43.709Z,100311.31
2022-10-23T16:07:11.657Z,100312.97
2022-10-23T16:09:39.625Z,100322.63
2022-10-23T16:12:08.188Z,100325.59
2022-10-23T16:14:36.181Z,100322.63
2022-10-23T16:17:04.264Z,100320.13
2022-10-23T16:19:33.668Z,100323.91
2022-10-23T16:22:02.983Z,100328.75
2022-10-23T16:24:31.189Z,100334.81
2022-10-23T16:26:59.283Z,100334.59
2022-10-23T16:29:27.586Z,100341.47
2022-10-23T16:31:55.647Z,100337.72
2022-10-23T16:34:23.601Z,100340.63
2022-10-23T16:36:53.030Z,100340.41
2022-10-23T16:39:21.058Z,100341.81
2022-10-23T16:41:49.031Z,100346.81
2022-10-23T16:44:16.994Z,100345.31
2022-10-23T16:46:45.014Z,100348.03
2022-10-23T16:49:14.008Z,100340.00
2022-10-23T16:51:41.954Z,100347.50
2022-10-23T16:54:11.672Z,100343.34
2022-10-23T16:56:39.625Z,100347.06
2022-10-23T16:59:07.668Z,100360.00
2022-10-23T17:01:35.777Z,100361.63
2022-10-23T17:04:03.881Z,100350.75
2022-10-23T17:06:32.471Z,100360.31
2022-10-23T17:09:00.742Z,100360.47
2022-10-23T17:11:30.692Z,100361.94
2022-10-23T17:13:59.877Z,100364.38
2022-10-23T17:16:28.669Z,100372.28
2022-10-23T17:18:56.655Z,100372.69
2022-10-23T17:21:24.688Z,100373.06
2022-10-23T17:23:52.751Z,100380.94
2022-10-23T17:26:23.785Z,100382.34
2022-10-23T17:28:53.131Z,100378.38
2022-10-23T17:31:22.127Z,100375.41
2022-10-23T17:33:51.475Z,100370.00
2022-10-23T17:36:19.880Z,100378.53
2022-10-23T17:38:47.856Z,100371.81
2022-10-23T17:41:16.711Z,100372.84
2022-10-23T17:43:44.725Z,100376.41
2022-10-23T17:46:14.169Z,100376.53
2022-10-23T17:48:43.510Z,100378.59
2022-10-23T17:51:12.503Z,100383.59
2022-10-23T17:53:41.355Z,100378.56
2022-10-23T17:56:11.408Z,100378.56
2022-10-23T17:58:39.371Z,100382.31
2022-10-23T18:01:07.795Z,100376.59
2022-10-23T18:03:37.297Z,100380.50
2022-10-23T18:06:08.678Z,100386.38
2022-10-23T18:08:36.845Z,100385.28
2022-10-23T18:11:05.226Z,100381.94
2022-10-23T18:13:33.451Z,100384.59
2022-10-23T18:16:02.671Z,100383.47
2022-10-23T18:18:30.692Z,100377.41
2022-10-23T18:21:00.350Z,100374.16
2022-10-23T18:23:28.360Z,100374.81
2022-10-23T18:25:56.433Z,100376.50
2022-10-23T18:28:24.410Z,100380.22
2022-10-23T18:30:54.732Z,100383.13
2022-10-23T18:33:24.881Z,100382.28
2022-10-23T18:35:52.893Z,100384.38
2022-10-23T18:38:22.248Z,100386.81
2022-10-23T18:40:50.244Z,100386.38
2022-10-23T18:43:31.354Z,100378.81
2022-10-23T18:46:06.336Z,100380.84
2022-10-23T18:48:34.576Z,100384.41
2022-10-23T18:51:02.520Z,100379.59
2022-10-23T18:53:31.830Z,100381.63
2022-10-23T18:56:00.814Z,100383.69
2022-10-23T18:58:28.800Z,100385.38
2022-10-23T19:00:56.835Z,100387.59
2022-10-23T19:03:24.796Z,100388.25
2022-10-23T19:05:53.557Z,100390.00
2022-10-23T19:08:21.879Z,100393.53
2022-10-23T19:10:51.280Z,100395.06
2022-10-23T19:13:19.288Z,100391.44
2022-10-23T19:15:47.205Z,100392.94
2022-10-23T19:18:15.221Z,100390.94
2022-10-23T19:20:43.241Z,100394.31
2022-10-23T19:23:12.858Z,100394.53
2022-10-23T19:25:44.969Z,100396.09
2022-10-23T19:28:14.297Z,100398.59
2022-10-23T19:30:42.257Z,100389.41
2022-10-23T19:33:10.246Z,100401.13
2022-10-23T19:35:38.186Z,100403.69
2022-10-23T19:38:06.178Z,100400.78
2022-10-23T19:40:34.168Z,100405.88
2022-10-23T19:43:02.113Z,100410.41
2022-10-23T19:48:04.594Z,100407.16
2022-10-23T19:50:32.566Z,100405.88
2022-10-23T19:53:00.516Z,100401.47
2022-10-23T19:55:28.468Z,100385.13
2022-10-23T19:57:56.422Z,100408.69
2022-10-23T20:00:24.422Z,100404.22
2022-10-23T20:02:55.291Z,100409.97
2022-10-23T20:05:23.486Z,100416.75
2022-10-23T20:07:51.847Z,100424.97
2022-10-23T20:10:19.989Z,100422.81
2022-10-23T20:12:56.737Z,100420.66
2022-10-23T20:15:30.433Z,100423.94
2022-10-23T20:17:59.816Z,100412.47
2022-10-23T20:20:27.798Z,100411.88
2022-10-23T20:22:55.856Z,100413.56
2022-10-23T20:25:24.040Z,100413.56
2022-10-23T20:27:52.011Z,100415.19
2022-10-23T20:30:20.179Z,100418.91
2022-10-23T20:32:48.187Z,100423.09
2022-10-23T20:35:17.578Z,100419.28
2022-10-23T20:37:45.921Z,100419.94
2022-10-23T20:40:14.363Z,100414.72
2022-10-23T20:42:42.338Z,100414.91
2022-10-23T20:45:11.576Z,100415.91
2022-10-23T20:47:39.894Z,100419.28
2022-10-23T20:50:09.284Z,100412.66
2022-10-23T20:52:38.608Z,100423.00
2022-10-23T20:55:07.086Z,100410.25
2022-10-23T20:57:35.031Z,100420.59
2022-10-23T21:00:05.123Z,100421.28
2022-10-23T21:02:33.251Z,100415.78
2022-10-23T21:05:01.280Z,100429.56
2022-10-23T21:07:29.257Z,100424.16
2022-10-23T21:09:58.579Z,100427.44
2022-10-23T21:12:26.620Z,100430.72
2022-10-23T21:14:54.662Z,100438.91
2022-10-23T21:17:22.632Z,100431.81
2022-10-23T21:19:50.633Z,100435.94
2022-10-23T21:22:18.659Z,100432.94
2022-10-23T21:24:46.816Z,100427.53
2022-10-23T21:27:16.308Z,100434.16
2022-10-23T21:29:44.474Z,100422.53
2022-10-23T21:32:12.437Z,100416.16
2022-10-23T21:34:40.375Z,100423.19
2022-10-23T21:37:13.427Z,100422.69
2022-10-23T21:39:42.183Z,100424.56
2022-10-23T21:42:10.216Z,100422.44
2022-10-23T21:44:39.566Z,100433.97
2022-10-23T21:47:08.137Z,100419.16
2022-10-23T21:49:36.084Z,100420.28
2022-10-23T21:52:04.628Z,100418.59
2022-10-23T21:54:32.600Z,100419.34
2022-10-23T21:57:00.601Z,100420.91
2022-10-23T21:59:31.628Z,100410.84
2022-10-23T22:02:02.585Z,100410.75
2022-10-23T22:04:30.640Z,100411.03
2022-10-23T22:06:58.569Z,100413.31
2022-10-23T22:09:26.531Z,100416.09
2022-10-23T22:11:54.595Z,100425.28
2022-10-23T22:14:22.545Z,100422.81
2022-10-23T22:16:50.506Z,100416.81
2022-10-23T22:19:20.349Z,100420.75
2022-10-23T22:21:48.768Z,100425.56
2022-10-23T22:24:17.519Z,100436.22
2022-10-23T22:26:46.330Z,100431.06
2022-10-23T22:29:15.638Z,100432.59
2022-10-23T22:31:45.687Z,100429.09
2022-10-23T22:34:27.259Z,100429.81
2022-10-23T22:37:07.976Z,100428.47
2022-10-23T22:39:35.934Z,100421.78
2022-10-23T22:42:03.878Z,100423.41
2022-10-23T22:44:31.877Z,100420.09
2022-10-23T22:46:59.830Z,100418.75
2022-10-23T22:49:29.309Z,100427.16
2022-10-23T22:51:57.245Z,100428.56
2022-10-23T22:54:25.194Z,100429.56
2022-10-23T22:56:53.164Z,100432.78
2022-10-23T22:59:21.116Z,100418.81
2022-10-23T23:01:49.116Z,100421.88
2022-10-23T23:07:07.956Z,100434.34
2022-10-23T23:09:37.818Z,100429.66
2022-10-23T23:12:05.986Z,100418.22
2022-10-23T23:14:33.981Z,100424.63
2022-10-23T23:17:01.955Z,100412.16
2022-10-23T23:19:29.930Z,100413.16
2022-10-23T23:21:57.982Z,100419.22
2022-10-23T23:24:27.354Z,100412.16
2022-10-23T23:26:55.285Z,100414.69
2022-10-23T23:29:23.306Z,100408.44
2022-10-23T23:31:51.229Z,100418.22
2022-10-23T23:34:19.199Z,100417.19
2022-10-23T23:36:47.192Z,100428.47
2022-10-23T23:39:15.123Z,100422.91
2022-10-23T23:41:44.480Z,100423.91
2022-10-23T23:44:12.467Z,100421.03
2022-10-23T23:46:40.377Z,100413.97
2022-10-23T23:49:08.445Z,100411.44
2022-10-23T23:51:37.277Z,100418.88
2022-10-23T23:54:05.351Z,100416.84
2022-10-23T23:56:33.305Z,100411.81
2022-10-23T23:59:02.631Z,100410.47
